sensor_id;sensor_type;location;lat;lon;timestamp;temperature;humidity
7129;DHT22;3606;52.930;8.644;2023-07-30T00:01:56;16.00;99.90
7129;DHT22;3606;52.930;8.644;2023-07-30T00:04:21;16.00;99.90
7129;DHT22;3606;52.930;8.644;2023-07-30T00:06:47;16.00;99.90
7129;DHT22;3606;52.930;8.644;2023-07-30T00:09:13;16.00;99.90
7129;DHT22;3606;52.930;8.644;2023-07-30T00:11:38;16.10;99.90
7129;DHT22;3606;52.930;8.644;2023-07-30T00:14:04;16.00;99.90
7129;DHT22;3606;52.930;8.644;2023-07-30T00:16:30;16.00;99.90
7129;DHT22;3606;52.930;8.644;2023-07-30T00:18:55;16.00;99.90
7129;DHT22;3606;52.930;8.644;2023-07-30T00:21:22;15.90;99.90
7129;DHT22;3606;52.930;8.644;2023-07-30T00:23:47;16.00;99.90
7129;DHT22;3606;52.930;8.644;2023-07-30T00:26:13;15.90;99.90
7129;DHT22;3606;52.930;8.644;2023-07-30T00:28:39;15.90;99.90
7129;DHT22;3606;52.930;8.644;2023-07-30T00:31:04;16.00;99.90
7129;DHT22;3606;52.930;8.644;2023-07-30T00:33:30;15.80;99.90
7129;DHT22;3606;52.930;8.644;2023-07-30T00:35:55;15.80;99.90
7129;DHT22;3606;52.930;8.644;2023-07-30T00:38:21;15.70;99.90
7129;DHT22;3606;52.930;8.644;2023-07-30T00:40:46;15.60;99.90
7129;DHT22;3606;52.930;8.644;2023-07-30T00:43:12;15.70;99.90
7129;DHT22;3606;52.930;8.644;2023-07-30T00:45:40;15.60;99.90
7129;DHT22;3606;52.930;8.644;2023-07-30T00:48:06;15.50;99.90
7129;DHT22;3606;52.930;8.644;2023-07-30T00:50:32;15.40;99.90
7129;DHT22;3606;52.930;8.644;2023-07-30T00:52:59;15.30;99.90
7129;DHT22;3606;52.930;8.644;2023-07-30T00:55:24;15.20;99.90
7129;DHT22;3606;52.930;8.644;2023-07-30T00:57:50;15.10;99.90
7129;DHT22;3606;52.930;8.644;2023-07-30T01:00:17;15.10;99.90
7129;DHT22;3606;52.930;8.644;2023-07-30T01:02:43;15.10;99.90
7129;DHT22;3606;52.930;8.644;2023-07-30T01:05:09;15.10;99.90
7129;DHT22;3606;52.930;8.644;2023-07-30T01:07:34;15.10;99.90
7129;DHT22;3606;52.930;8.644;2023-07-30T01:10:01;15.00;99.90
7129;DHT22;3606;52.930;8.644;2023-07-30T01:12:28;14.90;99.90
7129;DHT22;3606;52.930;8.644;2023-07-30T01:14:55;14.90;99.90
7129;DHT22;3606;52.930;8.644;2023-07-30T01:17:22;14.90;99.90
7129;DHT22;3606;52.930;8.644;2023-07-30T01:19:48;14.90;99.90
7129;DHT22;3606;52.930;8.644;2023-07-30T01:22:15;14.70;99.90
7129;DHT22;3606;52.930;8.644;2023-07-30T01:24:41;14.70;99.90
7129;DHT22;3606;52.930;8.644;2023-07-30T01:27:16;14.80;99.90
7129;DHT22;3606;52.930;8.644;2023-07-30T01:29:49;14.70;99.90
7129;DHT22;3606;52.930;8.644;2023-07-30T01:32:17;14.70;99.90
7129;DHT22;3606;52.930;8.644;2023-07-30T01:34:46;14.60;99.90
7129;DHT22;3606;52.930;8.644;2023-07-30T01:37:12;14.50;99.90
7129;DHT22;3606;52.930;8.644;2023-07-30T01:39:40;14.50;99.90
7129;DHT22;3606;52.930;8.644;2023-07-30T01:42:07;14.40;99.90
7129;DHT22;3606;52.930;8.644;2023-07-30T01:44:32;14.40;99.90
7129;DHT22;3606;52.930;8.644;2023-07-30T01:46:58;14.30;99.90
7129;DHT22;3606;52.930;8.644;2023-07-30T01:49:23;14.40;99.90
7129;DHT22;3606;52.930;8.644;2023-07-30T01:51:49;14.50;99.90
7129;DHT22;3606;52.930;8.644;2023-07-30T01:54:15;14.50;99.90
7129;DHT22;3606;52.930;8.644;2023-07-30T01:56:40;14.50;99.90
7129;DHT22;3606;52.930;8.644;2023-07-30T01:59:06;14.50;99.90
7129;DHT22;3606;52.930;8.644;2023-07-30T02:01:31;14.60;99.90
7129;DHT22;3606;52.930;8.644;2023-07-30T02:03:57;14.60;99.90
7129;DHT22;3606;52.930;8.644;2023-07-30T02:06:22;14.60;99.90
7129;DHT22;3606;52.930;8.644;2023-07-30T02:08:48;14.60;99.90
7129;DHT22;3606;52.930;8.644;2023-07-30T02:11:13;14.60;99.90
7129;DHT22;3606;52.930;8.644;2023-07-30T02:13:39;14.70;99.90
7129;DHT22;3606;52.930;8.644;2023-07-30T02:16:05;14.50;99.90
7129;DHT22;3606;52.930;8.644;2023-07-30T02:18:30;14.50;99.90
7129;DHT22;3606;52.930;8.644;2023-07-30T02:20:56;14.50;99.90
7129;DHT22;3606;52.930;8.644;2023-07-30T02:23:21;14.50;99.90
7129;DHT22;3606;52.930;8.644;2023-07-30T02:25:47;14.50;99.90
7129;DHT22;3606;52.930;8.644;2023-07-30T02:28:12;14.50;99.90
7129;DHT22;3606;52.930;8.644;2023-07-30T02:30:38;14.50;99.90
7129;DHT22;3606;52.930;8.644;2023-07-30T02:33:04;14.50;99.90
7129;DHT22;3606;52.930;8.644;2023-07-30T02:35:29;14.50;99.90
7129;DHT22;3606;52.930;8.644;2023-07-30T02:37:55;14.50;99.90
7129;DHT22;3606;52.930;8.644;2023-07-30T02:40:20;14.60;99.90
7129;DHT22;3606;52.930;8.644;2023-07-30T02:42:46;14.60;99.90
7129;DHT22;3606;52.930;8.644;2023-07-30T02:45:11;14.60;99.90
7129;DHT22;3606;52.930;8.644;2023-07-30T02:47:37;14.60;99.90
7129;DHT22;3606;52.930;8.644;2023-07-30T02:50:06;14.60;99.90
7129;DHT22;3606;52.930;8.644;2023-07-30T02:52:31;14.60;99.90
7129;DHT22;3606;52.930;8.644;2023-07-30T02:54:57;14.70;99.90
7129;DHT22;3606;52.930;8.644;2023-07-30T02:57:23;14.60;99.90
7129;DHT22;3606;52.930;8.644;2023-07-30T02:59:48;14.60;99.90
7129;DHT22;3606;52.930;8.644;2023-07-30T03:02:14;14.60;99.90
7129;DHT22;3606;52.930;8.644;2023-07-30T03:04:39;14.60;99.90
7129;DHT22;3606;52.930;8.644;2023-07-30T03:07:06;14.50;99.90
7129;DHT22;3606;52.930;8.644;2023-07-30T03:09:31;14.50;99.90
7129;DHT22;3606;52.930;8.644;2023-07-30T03:11:58;14.40;99.90
7129;DHT22;3606;52.930;8.644;2023-07-30T03:14:24;14.40;99.90
7129;DHT22;3606;52.930;8.644;2023-07-30T03:16:49;14.40;99.90
7129;DHT22;3606;52.930;8.644;2023-07-30T03:19:15;14.40;99.90
7129;DHT22;3606;52.930;8.644;2023-07-30T03:21:41;14.40;99.90
7129;DHT22;3606;52.930;8.644;2023-07-30T03:24:07;14.40;99.90
7129;DHT22;3606;52.930;8.644;2023-07-30T03:26:32;14.30;99.90
7129;DHT22;3606;52.930;8.644;2023-07-30T03:28:58;14.30;99.90
7129;DHT22;3606;52.930;8.644;2023-07-30T03:31:24;14.20;99.90
7129;DHT22;3606;52.930;8.644;2023-07-30T03:33:49;14.30;99.90
7129;DHT22;3606;52.930;8.644;2023-07-30T03:36:15;14.30;99.90
7129;DHT22;3606;52.930;8.644;2023-07-30T03:38:44;14.20;99.90
7129;DHT22;3606;52.930;8.644;2023-07-30T03:41:12;14.20;99.90
7129;DHT22;3606;52.930;8.644;2023-07-30T03:43:38;14.20;99.90
7129;DHT22;3606;52.930;8.644;2023-07-30T03:46:03;14.10;99.90
7129;DHT22;3606;52.930;8.644;2023-07-30T03:48:29;14.10;99.90
7129;DHT22;3606;52.930;8.644;2023-07-30T03:50:55;14.10;99.90
7129;DHT22;3606;52.930;8.644;2023-07-30T03:53:21;14.10;99.90
7129;DHT22;3606;52.930;8.644;2023-07-30T03:55:47;14.10;99.90
7129;DHT22;3606;52.930;8.644;2023-07-30T03:58:13;14.00;99.90
7129;DHT22;3606;52.930;8.644;2023-07-30T04:00:39;14.10;99.90
7129;DHT22;3606;52.930;8.644;2023-07-30T04:03:05;14.10;99.90
7129;DHT22;3606;52.930;8.644;2023-07-30T04:05:30;14.10;99.90
7129;DHT22;3606;52.930;8.644;2023-07-30T04:07:56;14.10;99.90
7129;DHT22;3606;52.930;8.644;2023-07-30T04:10:22;14.00;99.90
7129;DHT22;3606;52.930;8.644;2023-07-30T04:12:48;14.00;99.90
7129;DHT22;3606;52.930;8.644;2023-07-30T04:15:15;14.00;99.90
7129;DHT22;3606;52.930;8.644;2023-07-30T04:17:41;14.00;99.90
7129;DHT22;3606;52.930;8.644;2023-07-30T04:20:07;14.10;99.90
7129;DHT22;3606;52.930;8.644;2023-07-30T04:22:35;14.10;99.90
7129;DHT22;3606;52.930;8.644;2023-07-30T04:25:01;14.10;99.90
7129;DHT22;3606;52.930;8.644;2023-07-30T04:27:26;14.00;99.90
7129;DHT22;3606;52.930;8.644;2023-07-30T04:29:52;14.10;99.90
7129;DHT22;3606;52.930;8.644;2023-07-30T04:32:17;14.20;99.90
7129;DHT22;3606;52.930;8.644;2023-07-30T04:34:43;14.30;99.90
7129;DHT22;3606;52.930;8.644;2023-07-30T04:37:09;14.30;99.90
7129;DHT22;3606;52.930;8.644;2023-07-30T04:39:35;14.20;99.90
7129;DHT22;3606;52.930;8.644;2023-07-30T04:42:00;14.30;99.90
7129;DHT22;3606;52.930;8.644;2023-07-30T04:44:26;14.40;99.90
7129;DHT22;3606;52.930;8.644;2023-07-30T04:46:52;14.30;99.90
7129;DHT22;3606;52.930;8.644;2023-07-30T04:49:18;14.40;99.90
7129;DHT22;3606;52.930;8.644;2023-07-30T04:51:43;14.40;99.90
7129;DHT22;3606;52.930;8.644;2023-07-30T04:54:09;14.50;99.90
7129;DHT22;3606;52.930;8.644;2023-07-30T04:56:34;14.50;99.90
7129;DHT22;3606;52.930;8.644;2023-07-30T04:59:01;14.60;99.90
7129;DHT22;3606;52.930;8.644;2023-07-30T05:01:27;14.50;99.90
7129;DHT22;3606;52.930;8.644;2023-07-30T05:03:52;14.60;99.90
7129;DHT22;3606;52.930;8.644;2023-07-30T05:06:18;14.50;99.90
7129;DHT22;3606;52.930;8.644;2023-07-30T05:08:44;14.50;99.90
7129;DHT22;3606;52.930;8.644;2023-07-30T05:11:09;14.50;99.90
7129;DHT22;3606;52.930;8.644;2023-07-30T05:13:35;14.60;99.90
7129;DHT22;3606;52.930;8.644;2023-07-30T05:16:00;14.60;99.90
7129;DHT22;3606;52.930;8.644;2023-07-30T05:18:27;14.70;99.90
7129;DHT22;3606;52.930;8.644;2023-07-30T05:20:53;14.80;99.90
7129;DHT22;3606;52.930;8.644;2023-07-30T05:23:19;14.90;99.90
7129;DHT22;3606;52.930;8.644;2023-07-30T05:25:44;15.00;99.90
7129;DHT22;3606;52.930;8.644;2023-07-30T05:28:10;15.00;99.90
7129;DHT22;3606;52.930;8.644;2023-07-30T05:30:36;15.10;99.90
7129;DHT22;3606;52.930;8.644;2023-07-30T05:33:01;15.20;99.90
7129;DHT22;3606;52.930;8.644;2023-07-30T05:35:27;15.20;99.90
7129;DHT22;3606;52.930;8.644;2023-07-30T05:37:52;15.20;99.90
7129;DHT22;3606;52.930;8.644;2023-07-30T05:40:18;15.30;99.90
7129;DHT22;3606;52.930;8.644;2023-07-30T05:42:43;15.50;99.90
7129;DHT22;3606;52.930;8.644;2023-07-30T05:45:09;15.60;99.90
7129;DHT22;3606;52.930;8.644;2023-07-30T05:47:35;15.80;99.90
7129;DHT22;3606;52.930;8.644;2023-07-30T05:50:02;16.10;99.90
7129;DHT22;3606;52.930;8.644;2023-07-30T05:52:27;16.30;99.90
7129;DHT22;3606;52.930;8.644;2023-07-30T05:54:53;16.50;99.90
7129;DHT22;3606;52.930;8.644;2023-07-30T05:57:18;16.80;99.90
7129;DHT22;3606;52.930;8.644;2023-07-30T05:59:44;17.10;99.90
7129;DHT22;3606;52.930;8.644;2023-07-30T06:02:10;17.30;99.90
7129;DHT22;3606;52.930;8.644;2023-07-30T06:04:35;17.40;99.90
7129;DHT22;3606;52.930;8.644;2023-07-30T06:07:02;17.50;99.90
7129;DHT22;3606;52.930;8.644;2023-07-30T06:09:28;17.80;99.90
7129;DHT22;3606;52.930;8.644;2023-07-30T06:11:54;18.00;99.90
7129;DHT22;3606;52.930;8.644;2023-07-30T06:14:20;18.10;99.90
7129;DHT22;3606;52.930;8.644;2023-07-30T06:16:45;18.40;99.90
7129;DHT22;3606;52.930;8.644;2023-07-30T06:19:11;18.40;99.90
7129;DHT22;3606;52.930;8.644;2023-07-30T06:21:36;18.50;99.90
7129;DHT22;3606;52.930;8.644;2023-07-30T06:24:02;18.20;99.90
7129;DHT22;3606;52.930;8.644;2023-07-30T06:26:28;18.10;99.90
7129;DHT22;3606;52.930;8.644;2023-07-30T06:28:53;18.40;99.90
7129;DHT22;3606;52.930;8.644;2023-07-30T06:31:19;18.50;99.90
7129;DHT22;3606;52.930;8.644;2023-07-30T06:33:45;18.60;99.90
7129;DHT22;3606;52.930;8.644;2023-07-30T06:36:10;18.90;99.90
7129;DHT22;3606;52.930;8.644;2023-07-30T06:38:36;19.10;99.90
7129;DHT22;3606;52.930;8.644;2023-07-30T06:41:01;19.20;99.90
7129;DHT22;3606;52.930;8.644;2023-07-30T06:43:27;19.40;99.90
7129;DHT22;3606;52.930;8.644;2023-07-30T06:45:53;19.30;99.90
7129;DHT22;3606;52.930;8.644;2023-07-30T06:48:19;19.30;99.90
7129;DHT22;3606;52.930;8.644;2023-07-30T06:50:45;19.40;99.90
7129;DHT22;3606;52.930;8.644;2023-07-30T06:53:10;19.60;99.90
7129;DHT22;3606;52.930;8.644;2023-07-30T06:55:36;19.90;99.90
7129;DHT22;3606;52.930;8.644;2023-07-30T06:58:02;20.20;99.90
7129;DHT22;3606;52.930;8.644;2023-07-30T07:00:27;20.20;99.90
7129;DHT22;3606;52.930;8.644;2023-07-30T07:02:53;20.00;99.90
7129;DHT22;3606;52.930;8.644;2023-07-30T07:05:19;20.10;99.90
7129;DHT22;3606;52.930;8.644;2023-07-30T07:07:45;20.70;99.90
7129;DHT22;3606;52.930;8.644;2023-07-30T07:10:10;21.30;99.90
7129;DHT22;3606;52.930;8.644;2023-07-30T07:12:37;21.70;95.20
7129;DHT22;3606;52.930;8.644;2023-07-30T07:15:04;21.30;99.90
7129;DHT22;3606;52.930;8.644;2023-07-30T07:17:29;20.50;1.00
7129;DHT22;3606;52.930;8.644;2023-07-30T07:19:55;20.20;99.90
7129;DHT22;3606;52.930;8.644;2023-07-30T07:22:21;20.30;94.70
7129;DHT22;3606;52.930;8.644;2023-07-30T07:24:46;20.80;56.10
7129;DHT22;3606;52.930;8.644;2023-07-30T07:27:12;21.10;7.10
7129;DHT22;3606;52.930;8.644;2023-07-30T07:29:37;21.00;1.00
7129;DHT22;3606;52.930;8.644;2023-07-30T07:32:03;21.30;1.90
7129;DHT22;3606;52.930;8.644;2023-07-30T07:34:29;21.40;1.00
7129;DHT22;3606;52.930;8.644;2023-07-30T07:36:54;21.20;1.00
7129;DHT22;3606;52.930;8.644;2023-07-30T07:39:20;21.00;1.00
7129;DHT22;3606;52.930;8.644;2023-07-30T07:41:46;20.90;1.30
7129;DHT22;3606;52.930;8.644;2023-07-30T07:44:11;21.10;1.00
7129;DHT22;3606;52.930;8.644;2023-07-30T07:46:37;21.50;1.00
7129;DHT22;3606;52.930;8.644;2023-07-30T07:49:02;21.80;1.00
7129;DHT22;3606;52.930;8.644;2023-07-30T07:51:28;22.00;1.00
7129;DHT22;3606;52.930;8.644;2023-07-30T07:53:53;21.80;1.00
7129;DHT22;3606;52.930;8.644;2023-07-30T07:56:19;21.70;1.00
7129;DHT22;3606;52.930;8.644;2023-07-30T07:58:45;21.70;1.00
7129;DHT22;3606;52.930;8.644;2023-07-30T08:01:10;22.00;1.00
7129;DHT22;3606;52.930;8.644;2023-07-30T08:03:36;22.80;1.00
7129;DHT22;3606;52.930;8.644;2023-07-30T08:06:01;22.70;1.00
7129;DHT22;3606;52.930;8.644;2023-07-30T08:08:27;22.30;1.00
7129;DHT22;3606;52.930;8.644;2023-07-30T08:10:53;21.90;1.00
7129;DHT22;3606;52.930;8.644;2023-07-30T08:13:18;22.00;1.00
7129;DHT22;3606;52.930;8.644;2023-07-30T08:15:44;21.80;1.00
7129;DHT22;3606;52.930;8.644;2023-07-30T08:18:09;21.70;1.00
7129;DHT22;3606;52.930;8.644;2023-07-30T08:20:36;21.70;1.00
7129;DHT22;3606;52.930;8.644;2023-07-30T08:23:01;21.90;1.00
7129;DHT22;3606;52.930;8.644;2023-07-30T08:25:27;22.00;1.00
7129;DHT22;3606;52.930;8.644;2023-07-30T08:27:53;22.00;1.00
7129;DHT22;3606;52.930;8.644;2023-07-30T08:30:18;22.00;1.00
7129;DHT22;3606;52.930;8.644;2023-07-30T08:32:44;21.90;1.00
7129;DHT22;3606;52.930;8.644;2023-07-30T08:35:10;22.00;1.00
7129;DHT22;3606;52.930;8.644;2023-07-30T08:37:36;22.10;1.00
7129;DHT22;3606;52.930;8.644;2023-07-30T08:40:02;21.80;1.00
7129;DHT22;3606;52.930;8.644;2023-07-30T08:42:28;21.90;1.00
7129;DHT22;3606;52.930;8.644;2023-07-30T08:44:54;22.10;1.00
7129;DHT22;3606;52.930;8.644;2023-07-30T08:47:19;22.40;1.00
7129;DHT22;3606;52.930;8.644;2023-07-30T08:49:45;23.00;1.00
7129;DHT22;3606;52.930;8.644;2023-07-30T08:52:10;23.20;1.00
7129;DHT22;3606;52.930;8.644;2023-07-30T08:54:37;23.40;1.00
7129;DHT22;3606;52.930;8.644;2023-07-30T08:57:04;23.10;1.00
7129;DHT22;3606;52.930;8.644;2023-07-30T08:59:33;22.80;1.00
7129;DHT22;3606;52.930;8.644;2023-07-30T09:02:04;22.90;1.00
7129;DHT22;3606;52.930;8.644;2023-07-30T09:04:34;22.70;1.00
7129;DHT22;3606;52.930;8.644;2023-07-30T09:07:02;22.60;1.00
7129;DHT22;3606;52.930;8.644;2023-07-30T09:09:27;22.50;1.00
7129;DHT22;3606;52.930;8.644;2023-07-30T09:11:53;22.60;1.00
7129;DHT22;3606;52.930;8.644;2023-07-30T09:14:20;22.60;1.00
7129;DHT22;3606;52.930;8.644;2023-07-30T09:16:46;22.60;1.00
7129;DHT22;3606;52.930;8.644;2023-07-30T09:19:16;22.30;1.00
7129;DHT22;3606;52.930;8.644;2023-07-30T09:21:42;22.30;1.00
7129;DHT22;3606;52.930;8.644;2023-07-30T09:24:08;22.20;1.00
7129;DHT22;3606;52.930;8.644;2023-07-30T09:26:43;21.90;1.00
7129;DHT22;3606;52.930;8.644;2023-07-30T09:29:10;21.50;1.00
7129;DHT22;3606;52.930;8.644;2023-07-30T09:31:49;21.30;1.00
7129;DHT22;3606;52.930;8.644;2023-07-30T09:34:18;21.20;1.00
7129;DHT22;3606;52.930;8.644;2023-07-30T09:36:47;21.20;1.00
7129;DHT22;3606;52.930;8.644;2023-07-30T09:39:23;21.20;1.00
7129;DHT22;3606;52.930;8.644;2023-07-30T09:41:50;21.50;1.00
7129;DHT22;3606;52.930;8.644;2023-07-30T09:44:20;21.80;1.00
7129;DHT22;3606;52.930;8.644;2023-07-30T09:46:49;22.10;1.00
7129;DHT22;3606;52.930;8.644;2023-07-30T09:49:15;22.60;1.00
7129;DHT22;3606;52.930;8.644;2023-07-30T09:51:41;22.90;1.00
7129;DHT22;3606;52.930;8.644;2023-07-30T09:54:08;22.80;1.00
7129;DHT22;3606;52.930;8.644;2023-07-30T09:56:36;22.90;1.00
7129;DHT22;3606;52.930;8.644;2023-07-30T09:59:02;22.70;1.00
7129;DHT22;3606;52.930;8.644;2023-07-30T10:01:29;22.70;1.00
7129;DHT22;3606;52.930;8.644;2023-07-30T10:03:56;22.60;1.00
7129;DHT22;3606;52.930;8.644;2023-07-30T10:06:25;22.50;1.00
7129;DHT22;3606;52.930;8.644;2023-07-30T10:08:53;22.30;1.00
7129;DHT22;3606;52.930;8.644;2023-07-30T10:11:20;22.30;1.00
7129;DHT22;3606;52.930;8.644;2023-07-30T10:13:47;22.40;1.00
7129;DHT22;3606;52.930;8.644;2023-07-30T10:16:13;22.50;1.00
7129;DHT22;3606;52.930;8.644;2023-07-30T10:18:43;22.50;1.00
7129;DHT22;3606;52.930;8.644;2023-07-30T10:21:10;22.40;1.00
7129;DHT22;3606;52.930;8.644;2023-07-30T10:23:45;22.80;1.00
7129;DHT22;3606;52.930;8.644;2023-07-30T10:26:11;23.30;1.00
7129;DHT22;3606;52.930;8.644;2023-07-30T10:28:37;23.40;1.00
7129;DHT22;3606;52.930;8.644;2023-07-30T10:31:07;23.50;1.00
7129;DHT22;3606;52.930;8.644;2023-07-30T10:33:53;23.40;1.00
7129;DHT22;3606;52.930;8.644;2023-07-30T10:36:33;23.50;1.00
7129;DHT22;3606;52.930;8.644;2023-07-30T10:39:26;23.90;1.00
7129;DHT22;3606;52.930;8.644;2023-07-30T10:41:57;24.50;1.00
7129;DHT22;3606;52.930;8.644;2023-07-30T10:46:49;24.90;1.00
7129;DHT22;3606;52.930;8.644;2023-07-30T10:49:14;25.10;1.00
7129;DHT22;3606;52.930;8.644;2023-07-30T10:51:40;25.10;1.00
7129;DHT22;3606;52.930;8.644;2023-07-30T10:54:06;24.90;1.00
7129;DHT22;3606;52.930;8.644;2023-07-30T10:56:36;24.80;1.00
7129;DHT22;3606;52.930;8.644;2023-07-30T10:59:06;24.10;1.00
7129;DHT22;3606;52.930;8.644;2023-07-30T11:01:39;24.10;1.00
7129;DHT22;3606;52.930;8.644;2023-07-30T11:04:16;24.20;1.00
7129;DHT22;3606;52.930;8.644;2023-07-30T11:06:51;24.30;1.00
7129;DHT22;3606;52.930;8.644;2023-07-30T11:09:20;24.30;1.00
7129;DHT22;3606;52.930;8.644;2023-07-30T11:11:47;23.90;1.00
7129;DHT22;3606;52.930;8.644;2023-07-30T11:14:16;23.50;1.00
7129;DHT22;3606;52.930;8.644;2023-07-30T11:17:08;23.20;1.00
7129;DHT22;3606;52.930;8.644;2023-07-30T11:19:34;23.30;1.00
7129;DHT22;3606;52.930;8.644;2023-07-30T11:21:59;23.40;1.00
7129;DHT22;3606;52.930;8.644;2023-07-30T11:24:35;23.20;1.00
7129;DHT22;3606;52.930;8.644;2023-07-30T11:27:02;23.50;1.00
7129;DHT22;3606;52.930;8.644;2023-07-30T11:29:28;24.20;1.00
7129;DHT22;3606;52.930;8.644;2023-07-30T11:31:57;24.40;1.00
7129;DHT22;3606;52.930;8.644;2023-07-30T11:34:25;23.90;1.00
7129;DHT22;3606;52.930;8.644;2023-07-30T11:36:51;23.10;1.00
7129;DHT22;3606;52.930;8.644;2023-07-30T11:39:17;22.50;1.00
7129;DHT22;3606;52.930;8.644;2023-07-30T11:41:43;21.80;1.00
7129;DHT22;3606;52.930;8.644;2023-07-30T11:44:08;21.40;1.00
7129;DHT22;3606;52.930;8.644;2023-07-30T11:46:34;21.30;1.00
7129;DHT22;3606;52.930;8.644;2023-07-30T11:49:14;21.90;1.00
7129;DHT22;3606;52.930;8.644;2023-07-30T11:51:39;22.60;1.00
7129;DHT22;3606;52.930;8.644;2023-07-30T11:54:05;22.60;1.00
7129;DHT22;3606;52.930;8.644;2023-07-30T11:56:34;22.40;1.00
7129;DHT22;3606;52.930;8.644;2023-07-30T11:59:01;22.30;1.00
7129;DHT22;3606;52.930;8.644;2023-07-30T12:01:30;22.00;1.00
7129;DHT22;3606;52.930;8.644;2023-07-30T12:03:58;21.60;1.00
7129;DHT22;3606;52.930;8.644;2023-07-30T12:06:23;21.20;1.00
7129;DHT22;3606;52.930;8.644;2023-07-30T12:08:50;21.00;1.00
7129;DHT22;3606;52.930;8.644;2023-07-30T12:11:17;21.00;1.00
7129;DHT22;3606;52.930;8.644;2023-07-30T12:13:45;21.40;1.00
7129;DHT22;3606;52.930;8.644;2023-07-30T12:16:12;21.50;1.00
7129;DHT22;3606;52.930;8.644;2023-07-30T12:18:38;21.30;1.00
7129;DHT22;3606;52.930;8.644;2023-07-30T12:21:05;21.00;1.00
7129;DHT22;3606;52.930;8.644;2023-07-30T12:23:36;19.90;2.20
7129;DHT22;3606;52.930;8.644;2023-07-30T12:26:02;18.00;99.90
7129;DHT22;3606;52.930;8.644;2023-07-30T12:28:31;16.70;99.90
7129;DHT22;3606;52.930;8.644;2023-07-30T12:30:56;16.20;99.90
7129;DHT22;3606;52.930;8.644;2023-07-30T12:33:22;16.60;99.90
7129;DHT22;3606;52.930;8.644;2023-07-30T12:35:48;17.10;99.90
7129;DHT22;3606;52.930;8.644;2023-07-30T12:38:15;17.90;99.90
7129;DHT22;3606;52.930;8.644;2023-07-30T12:40:41;18.90;99.90
7129;DHT22;3606;52.930;8.644;2023-07-30T12:43:06;19.20;99.90
7129;DHT22;3606;52.930;8.644;2023-07-30T12:45:32;19.00;32.50
7129;DHT22;3606;52.930;8.644;2023-07-30T12:47:58;18.90;99.90
7129;DHT22;3606;52.930;8.644;2023-07-30T12:50:23;19.60;99.90
7129;DHT22;3606;52.930;8.644;2023-07-30T12:52:49;20.40;90.20
7129;DHT22;3606;52.930;8.644;2023-07-30T12:55:15;20.10;98.10
7129;DHT22;3606;52.930;8.644;2023-07-30T12:57:41;19.50;61.50
7129;DHT22;3606;52.930;8.644;2023-07-30T13:00:07;18.60;99.90
7129;DHT22;3606;52.930;8.644;2023-07-30T13:02:32;18.00;99.90
7129;DHT22;3606;52.930;8.644;2023-07-30T13:04:59;17.80;99.90
7129;DHT22;3606;52.930;8.644;2023-07-30T13:07:25;18.10;99.90
7129;DHT22;3606;52.930;8.644;2023-07-30T13:10:02;19.60;1.00
7129;DHT22;3606;52.930;8.644;2023-07-30T13:12:28;20.20;99.90
7129;DHT22;3606;52.930;8.644;2023-07-30T13:14:54;19.80;1.00
7129;DHT22;3606;52.930;8.644;2023-07-30T13:17:19;19.40;1.00
7129;DHT22;3606;52.930;8.644;2023-07-30T13:19:45;19.20;99.90
7129;DHT22;3606;52.930;8.644;2023-07-30T13:22:10;19.10;99.90
7129;DHT22;3606;52.930;8.644;2023-07-30T13:24:36;19.10;1.00
7129;DHT22;3606;52.930;8.644;2023-07-30T13:27:01;19.20;1.00
7129;DHT22;3606;52.930;8.644;2023-07-30T13:29:27;19.50;99.90
7129;DHT22;3606;52.930;8.644;2023-07-30T13:31:53;20.10;99.90
7129;DHT22;3606;52.930;8.644;2023-07-30T13:34:18;20.80;99.90
7129;DHT22;3606;52.930;8.644;2023-07-30T13:36:44;21.40;64.50
7129;DHT22;3606;52.930;8.644;2023-07-30T13:39:09;22.40;99.90
7129;DHT22;3606;52.930;8.644;2023-07-30T13:41:35;23.00;1.00
7129;DHT22;3606;52.930;8.644;2023-07-30T13:44:00;22.90;1.00
7129;DHT22;3606;52.930;8.644;2023-07-30T13:46:26;23.20;1.00
7129;DHT22;3606;52.930;8.644;2023-07-30T13:48:51;24.30;99.90
7129;DHT22;3606;52.930;8.644;2023-07-30T13:51:18;24.50;99.90
7129;DHT22;3606;52.930;8.644;2023-07-30T13:53:44;23.60;99.90
7129;DHT22;3606;52.930;8.644;2023-07-30T13:56:09;22.30;1.00
7129;DHT22;3606;52.930;8.644;2023-07-30T13:58:35;21.70;99.90
7129;DHT22;3606;52.930;8.644;2023-07-30T14:01:00;22.30;1.00
7129;DHT22;3606;52.930;8.644;2023-07-30T14:03:26;23.90;91.90
7129;DHT22;3606;52.930;8.644;2023-07-30T14:05:51;25.80;31.50
7129;DHT22;3606;52.930;8.644;2023-07-30T14:08:17;27.00;99.90
7129;DHT22;3606;52.930;8.644;2023-07-30T14:10:42;27.40;1.00
7129;DHT22;3606;52.930;8.644;2023-07-30T14:13:08;27.50;99.90
7129;DHT22;3606;52.930;8.644;2023-07-30T14:15:34;26.70;1.00
7129;DHT22;3606;52.930;8.644;2023-07-30T14:17:59;26.60;1.00
7129;DHT22;3606;52.930;8.644;2023-07-30T14:20:25;26.00;99.90
7129;DHT22;3606;52.930;8.644;2023-07-30T14:22:51;25.20;1.00
7129;DHT22;3606;52.930;8.644;2023-07-30T14:25:17;24.30;17.80
7129;DHT22;3606;52.930;8.644;2023-07-30T14:27:42;23.30;99.90
7129;DHT22;3606;52.930;8.644;2023-07-30T14:30:08;22.50;99.90
7129;DHT22;3606;52.930;8.644;2023-07-30T14:32:34;21.70;90.90
7129;DHT22;3606;52.930;8.644;2023-07-30T14:34:59;21.00;99.90
7129;DHT22;3606;52.930;8.644;2023-07-30T14:37:25;19.80;1.00
7129;DHT22;3606;52.930;8.644;2023-07-30T14:39:50;18.70;99.90
7129;DHT22;3606;52.930;8.644;2023-07-30T14:42:16;18.10;99.90
7129;DHT22;3606;52.930;8.644;2023-07-30T14:44:42;17.80;99.90
7129;DHT22;3606;52.930;8.644;2023-07-30T14:47:07;17.70;99.90
7129;DHT22;3606;52.930;8.644;2023-07-30T14:49:34;17.80;99.90
7129;DHT22;3606;52.930;8.644;2023-07-30T14:51:59;18.60;99.90
7129;DHT22;3606;52.930;8.644;2023-07-30T14:54:25;20.00;99.90
7129;DHT22;3606;52.930;8.644;2023-07-30T14:56:50;21.20;1.00
7129;DHT22;3606;52.930;8.644;2023-07-30T14:59:16;22.30;99.90
7129;DHT22;3606;52.930;8.644;2023-07-30T15:01:41;22.60;1.00
7129;DHT22;3606;52.930;8.644;2023-07-30T15:04:07;22.00;1.00
7129;DHT22;3606;52.930;8.644;2023-07-30T15:06:33;21.20;1.00
7129;DHT22;3606;52.930;8.644;2023-07-30T15:08:59;20.30;99.90
7129;DHT22;3606;52.930;8.644;2023-07-30T15:11:25;19.40;99.90
7129;DHT22;3606;52.930;8.644;2023-07-30T15:13:50;18.60;1.00
7129;DHT22;3606;52.930;8.644;2023-07-30T15:16:16;17.90;1.00
7129;DHT22;3606;52.930;8.644;2023-07-30T15:18:42;17.20;38.00
7129;DHT22;3606;52.930;8.644;2023-07-30T15:21:12;16.80;99.90
7129;DHT22;3606;52.930;8.644;2023-07-30T15:23:37;16.80;99.90
7129;DHT22;3606;52.930;8.644;2023-07-30T15:26:03;17.30;99.90
7129;DHT22;3606;52.930;8.644;2023-07-30T15:28:28;18.60;99.90
7129;DHT22;3606;52.930;8.644;2023-07-30T15:30:54;19.60;1.00
7129;DHT22;3606;52.930;8.644;2023-07-30T15:33:20;20.80;1.00
7129;DHT22;3606;52.930;8.644;2023-07-30T15:35:45;21.60;1.00
7129;DHT22;3606;52.930;8.644;2023-07-30T15:38:11;21.90;1.00
7129;DHT22;3606;52.930;8.644;2023-07-30T15:40:37;21.90;1.00
7129;DHT22;3606;52.930;8.644;2023-07-30T15:43:03;21.60;99.90
7129;DHT22;3606;52.930;8.644;2023-07-30T15:45:29;21.10;1.00
7129;DHT22;3606;52.930;8.644;2023-07-30T15:47:55;20.30;1.00
7129;DHT22;3606;52.930;8.644;2023-07-30T15:50:20;19.70;1.00
7129;DHT22;3606;52.930;8.644;2023-07-30T15:52:52;19.20;1.00
7129;DHT22;3606;52.930;8.644;2023-07-30T15:55:17;18.90;1.00
7129;DHT22;3606;52.930;8.644;2023-07-30T15:57:43;18.80;99.90
7129;DHT22;3606;52.930;8.644;2023-07-30T16:00:09;18.80;99.90
7129;DHT22;3606;52.930;8.644;2023-07-30T16:02:35;18.80;99.90
7129;DHT22;3606;52.930;8.644;2023-07-30T16:05:01;18.70;99.90